createdAt,value
2023-11-11T00:00:00.864Z,0
2023-11-11T00:10:00.548Z,0
2023-11-11T00:20:00.643Z,0
2023-11-11T00:30:00.591Z,0
2023-11-11T00:40:00.552Z,0
2023-11-11T00:50:00.555Z,0
2023-11-11T01:00:00.695Z,0
2023-11-11T01:10:00.633Z,0
2023-11-11T01:20:00.603Z,0
2023-11-11T01:30:00.784Z,0
2023-11-11T01:40:00.585Z,0
2023-11-11T01:50:00.613Z,0
2023-11-11T02:00:00.720Z,0
2023-11-11T02:10:00.218Z,0
2023-11-11T02:20:00.236Z,0
2023-11-11T02:30:00.281Z,0
2023-11-11T02:40:00.279Z,0
2023-11-11T02:50:00.242Z,0
2023-11-11T03:00:00.236Z,0
2023-11-11T03:10:00.303Z,0
2023-11-11T03:20:00.422Z,0
2023-11-11T03:30:00.340Z,0
2023-11-11T03:40:00.303Z,0
2023-11-11T03:50:00.284Z,0
2023-11-11T04:00:00.288Z,0
2023-11-11T04:10:00.365Z,0
2023-11-11T04:20:00.378Z,0
2023-11-11T04:30:00.375Z,0
2023-11-11T04:40:00.333Z,0
2023-11-11T04:50:00.304Z,0
2023-11-11T05:00:00.296Z,0
2023-11-11T05:10:00.430Z,0
2023-11-11T05:20:00.279Z,0
2023-11-11T05:30:01.259Z,0
2023-11-11T05:40:00.381Z,0
2023-11-11T05:50:00.266Z,0
2023-11-11T06:00:00.373Z,0
2023-11-11T06:10:00.398Z,0
2023-11-11T06:20:00.303Z,0
2023-11-11T06:30:00.239Z,10
2023-11-11T06:40:00.210Z,31
2023-11-11T06:50:00.413Z,31
2023-11-11T07:00:00.321Z,125
2023-11-11T07:10:00.238Z,173
2023-11-11T07:20:00.276Z,396
2023-11-11T07:30:00.269Z,963
2023-11-11T07:40:00.219Z,663
2023-11-11T07:50:00.276Z,292
2023-11-11T08:00:00.243Z,555
2023-11-11T08:10:00.283Z,1296
2023-11-11T08:20:00.289Z,1282
2023-11-11T08:30:00.243Z,3942
2023-11-11T08:40:00.293Z,7254
2023-11-11T08:50:00.262Z,5091
2023-11-11T09:00:00.378Z,8488
2023-11-11T09:10:00.394Z,8488
2023-11-11T09:20:00.354Z,6693
2023-11-11T09:30:00.230Z,7523
2023-11-11T09:40:00.450Z,30747
2023-11-11T09:50:00.274Z,45520
2023-11-11T10:00:00.255Z,64461
2023-11-11T10:10:00.283Z,72427
2023-11-11T10:20:00.425Z,9515
2023-11-11T10:30:00.273Z,92491
2023-11-11T10:40:00.318Z,11537
2023-11-11T10:50:00.278Z,28927
2023-11-11T11:00:00.437Z,29792
2023-11-11T11:10:00.246Z,25498
2023-11-11T11:20:00.365Z,61489
2023-11-11T11:30:02.113Z,86957
2023-11-11T11:40:00.316Z,85448
2023-11-11T11:50:00.337Z,85921
2023-11-11T12:00:00.232Z,79616
2023-11-11T12:10:00.290Z,79616
2023-11-11T12:20:00.365Z,18302
2023-11-11T12:30:00.241Z,75249
2023-11-11T12:40:00.231Z,2037
2023-11-11T12:50:00.409Z,1795
2023-11-11T13:00:00.268Z,4838
2023-11-11T13:10:00.271Z,8853
2023-11-11T13:20:00.449Z,64714
2023-11-11T13:30:00.227Z,73148
2023-11-11T13:40:02.141Z,6333
2023-11-11T13:50:00.599Z,60076
2023-11-11T14:00:00.264Z,62748
2023-11-11T14:10:00.235Z,57624
2023-11-11T14:20:00.468Z,6542
2023-11-11T14:30:00.306Z,4591
2023-11-11T14:40:00.326Z,2110
2023-11-11T14:50:00.364Z,2683
2023-11-11T15:00:00.253Z,17077
2023-11-11T15:10:00.735Z,2631
2023-11-11T15:20:00.499Z,2081
2023-11-11T15:30:00.241Z,1147
2023-11-11T15:40:00.407Z,630
2023-11-11T15:50:00.449Z,286
2023-11-11T16:00:00.257Z,122
2023-11-11T16:10:00.218Z,23
2023-11-11T16:20:00.444Z,9
2023-11-11T16:30:00.257Z,9
2023-11-11T16:40:00.401Z,2
2023-11-11T16:50:00.383Z,2
2023-11-11T17:00:00.361Z,0
2023-11-11T17:10:02.406Z,0
2023-11-11T17:20:00.297Z,0
2023-11-11T17:30:00.326Z,0
2023-11-11T17:40:00.299Z,0
2023-11-11T17:50:00.334Z,0
2023-11-11T18:00:00.276Z,0
2023-11-11T18:10:00.262Z,0
2023-11-11T18:20:02.886Z,0
2023-11-11T18:30:00.241Z,0
2023-11-11T18:40:00.226Z,0
2023-11-11T18:50:12.112Z,0
2023-11-11T19:00:00.309Z,0
2023-11-11T19:10:00.233Z,0
2023-11-11T19:20:00.801Z,0
2023-11-11T19:30:00.308Z,0
2023-11-11T19:40:00.328Z,0
2023-11-11T19:50:00.320Z,0
2023-11-11T20:00:00.221Z,0
2023-11-11T20:10:00.290Z,0
2023-11-11T20:20:00.444Z,0
2023-11-11T20:30:00.276Z,0
2023-11-11T20:40:00.321Z,0
2023-11-11T20:50:00.414Z,0
2023-11-11T21:00:00.301Z,0
2023-11-11T21:10:00.252Z,0
2023-11-11T21:20:00.317Z,0
2023-11-11T21:30:00.246Z,0
2023-11-11T21:40:00.264Z,0
2023-11-11T21:50:00.302Z,0
2023-11-11T22:00:00.273Z,0
2023-11-11T22:10:00.284Z,0
2023-11-11T22:20:00.326Z,0
2023-11-11T22:30:00.261Z,0
2023-11-11T22:40:00.241Z,0
2023-11-11T22:50:00.417Z,0
2023-11-11T23:00:00.220Z,0
2023-11-11T23:10:00.837Z,0
2023-11-11T23:20:00.500Z,0
2023-11-11T23:30:00.211Z,0
2023-11-11T23:40:00.228Z,0
2023-11-11T23:50:00.344Z,0
